createdAt,value
2022-12-10T00:00:46.865Z,19.70
2022-12-10T00:01:47.049Z,21.10
2022-12-10T00:02:47.262Z,19.40
2022-12-10T00:03:47.414Z,21.70
2022-12-10T00:04:49.413Z,18.10
2022-12-10T00:05:47.753Z,19.10
2022-12-10T00:06:48.427Z,21.10
2022-12-10T00:07:48.112Z,19.70
2022-12-10T00:08:48.245Z,23.00
2022-12-10T00:09:48.432Z,19.20
2022-12-10T00:10:48.613Z,18.60
2022-12-10T00:11:48.775Z,19.20
2022-12-10T00:12:48.959Z,20.90
2022-12-10T00:13:49.142Z,19.90
2022-12-10T00:14:49.340Z,19.80
2022-12-10T00:15:49.533Z,21.10
2022-12-10T00:16:49.653Z,19.70
2022-12-10T00:17:49.845Z,16.70
2022-12-10T00:18:50.024Z,19.00
2022-12-10T00:19:50.200Z,19.70
2022-12-10T00:20:50.372Z,17.70
2022-12-10T00:21:50.580Z,20.60
2022-12-10T00:22:50.739Z,19.00
2022-12-10T00:23:50.891Z,17.90
2022-12-10T00:24:51.080Z,17.20
2022-12-10T00:25:51.261Z,17.80
2022-12-10T00:26:51.438Z,17.30
2022-12-10T00:27:51.598Z,17.90
2022-12-10T00:28:51.733Z,17.40
2022-12-10T00:29:51.900Z,17.90
2022-12-10T00:30:52.069Z,17.70
2022-12-10T00:31:52.273Z,16.90
2022-12-10T00:32:52.458Z,19.70
2022-12-10T00:33:52.590Z,18.50
2022-12-10T00:34:52.768Z,16.80
2022-12-10T00:35:52.948Z,14.70
2022-12-10T00:36:53.109Z,18.10
2022-12-10T00:37:53.308Z,19.20
2022-12-10T00:38:53.441Z,17.20
2022-12-10T00:39:53.608Z,16.70
2022-12-10T00:40:53.778Z,18.10
2022-12-10T00:41:53.969Z,18.20
2022-12-10T00:42:54.148Z,16.00
2022-12-10T00:43:54.317Z,17.00
2022-12-10T00:44:54.497Z,14.00
2022-12-10T00:45:54.667Z,15.20
2022-12-10T00:46:54.871Z,16.10
2022-12-10T00:47:55.053Z,13.40
2022-12-10T00:48:55.166Z,15.00
2022-12-10T00:49:55.337Z,15.60
2022-12-10T00:50:55.498Z,15.70
2022-12-10T00:51:55.668Z,15.40
2022-12-10T00:52:55.856Z,15.70
2022-12-10T00:53:56.026Z,17.00
2022-12-10T00:54:56.208Z,15.50
2022-12-10T00:55:56.378Z,14.30
2022-12-10T00:56:56.539Z,16.70
2022-12-10T00:57:56.717Z,13.70
2022-12-10T00:58:56.878Z,15.50
2022-12-10T00:59:57.063Z,14.70
2022-12-10T01:00:57.287Z,16.60
2022-12-10T01:01:57.449Z,18.00
2022-12-10T01:02:57.584Z,20.40
2022-12-10T01:03:57.734Z,19.40
2022-12-10T01:04:57.905Z,18.80
2022-12-10T01:05:58.075Z,20.40
2022-12-10T01:06:58.254Z,17.40
2022-12-10T01:07:58.514Z,20.00
2022-12-10T01:08:58.613Z,19.50
2022-12-10T01:09:58.793Z,16.30
2022-12-10T01:10:58.973Z,19.60
2022-12-10T01:11:59.145Z,17.30
2022-12-10T01:12:59.353Z,16.90
2022-12-10T01:13:59.492Z,17.10
2022-12-10T01:14:59.654Z,18.00
2022-12-10T01:15:59.869Z,18.30
2022-12-10T01:17:00.012Z,17.10
2022-12-10T01:18:00.181Z,17.00
2022-12-10T01:19:00.358Z,18.70
2022-12-10T01:20:00.531Z,16.30
2022-12-10T01:21:00.703Z,17.50
2022-12-10T01:22:00.871Z,16.80
2022-12-10T01:23:01.070Z,16.30
2022-12-10T01:24:01.247Z,17.90
2022-12-10T01:25:01.410Z,17.10
2022-12-10T01:26:01.599Z,16.00
2022-12-10T01:27:01.760Z,15.40
2022-12-10T01:28:01.969Z,17.60
2022-12-10T01:29:02.102Z,17.10
2022-12-10T01:30:02.291Z,18.90
2022-12-10T01:31:02.451Z,17.60
2022-12-10T01:32:02.657Z,17.90
2022-12-10T01:33:02.830Z,16.20
2022-12-10T01:34:02.990Z,18.20
2022-12-10T01:35:03.161Z,16.50
2022-12-10T01:36:03.330Z,17.00
2022-12-10T01:37:03.491Z,19.40
2022-12-10T01:38:03.700Z,18.40
2022-12-10T01:39:03.840Z,17.70
2022-12-10T01:40:04.020Z,18.80
2022-12-10T01:41:04.189Z,18.00
2022-12-10T01:42:04.426Z,17.80
2022-12-10T01:43:04.580Z,18.30
2022-12-10T01:44:04.717Z,17.00
2022-12-10T01:45:04.878Z,18.20
2022-12-10T01:46:05.182Z,16.70
2022-12-10T01:47:05.219Z,19.50
2022-12-10T01:48:08.194Z,18.20
2022-12-10T01:49:05.557Z,16.30
2022-12-10T01:50:06.012Z,17.80
2022-12-10T01:51:05.921Z,21.10
2022-12-10T01:52:06.089Z,16.30
2022-12-10T01:53:06.287Z,15.60
2022-12-10T01:54:06.417Z,15.60
2022-12-10T01:55:06.606Z,15.40
2022-12-10T01:56:06.775Z,18.20
2022-12-10T01:57:06.957Z,16.90
2022-12-10T01:58:07.148Z,19.30
2022-12-10T01:59:07.288Z,16.30
2022-12-10T02:00:07.907Z,16.40
2022-12-10T02:01:07.712Z,18.70
2022-12-10T02:02:07.827Z,18.50
2022-12-10T02:03:07.969Z,17.70
2022-12-10T02:04:08.156Z,18.30
2022-12-10T02:05:08.319Z,15.60
2022-12-10T02:06:08.498Z,16.40
2022-12-10T02:07:08.686Z,16.30
2022-12-10T02:08:08.944Z,18.60
2022-12-10T02:09:09.015Z,15.30
2022-12-10T02:10:09.454Z,16.60
2022-12-10T02:11:09.344Z,17.10
2022-12-10T02:12:09.511Z,17.70
2022-12-10T02:13:09.702Z,14.20
2022-12-10T02:14:09.875Z,16.90
2022-12-10T02:15:10.034Z,17.30
2022-12-10T02:16:10.267Z,16.00
2022-12-10T02:17:10.405Z,17.00
2022-12-10T02:18:10.595Z,16.60
2022-12-10T02:19:10.773Z,15.10
2022-12-10T02:20:11.312Z,16.90
2022-12-10T02:21:11.097Z,14.20
2022-12-10T02:22:11.274Z,15.50
2022-12-10T02:23:11.452Z,14.80
2022-12-10T02:24:11.649Z,16.60
2022-12-10T02:25:11.802Z,18.50
2022-12-10T02:26:11.951Z,15.20
2022-12-10T02:27:12.122Z,14.90
2022-12-10T02:28:12.313Z,17.20
2022-12-10T02:29:12.476Z,17.60
2022-12-10T02:30:12.622Z,16.20
2022-12-10T02:31:12.851Z,14.90
2022-12-10T02:32:12.987Z,17.90
2022-12-10T02:33:13.181Z,15.40
2022-12-10T02:34:13.321Z,16.20
2022-12-10T02:35:13.511Z,15.10
2022-12-10T02:36:13.686Z,16.40
2022-12-10T02:37:13.870Z,14.70
2022-12-10T02:38:14.023Z,14.70
2022-12-10T02:39:14.203Z,15.90
2022-12-10T02:40:14.370Z,14.20
2022-12-10T02:41:14.549Z,14.40
2022-12-10T02:42:14.748Z,15.10
2022-12-10T02:43:14.906Z,16.20
2022-12-10T02:44:15.079Z,16.60
2022-12-10T02:45:15.251Z,14.30
2022-12-10T02:46:15.483Z,16.10
2022-12-10T02:47:15.592Z,14.70
2022-12-10T02:48:15.789Z,16.10
2022-12-10T02:49:15.929Z,17.50
2022-12-10T02:50:16.111Z,16.30
2022-12-10T02:51:16.280Z,15.20
2022-12-10T02:52:16.449Z,14.10
2022-12-10T02:53:16.639Z,14.30
2022-12-10T02:54:16.816Z,13.70
2022-12-10T02:55:17.007Z,15.40
2022-12-10T02:56:17.170Z,16.30
2022-12-10T02:57:17.339Z,15.10
2022-12-10T02:58:17.528Z,15.90
2022-12-10T02:59:17.699Z,15.80
2022-12-10T03:00:17.877Z,14.70
2022-12-10T03:01:18.114Z,13.70
2022-12-10T03:02:18.223Z,15.20
2022-12-10T03:03:18.434Z,15.90
2022-12-10T03:04:18.570Z,12.70
2022-12-10T03:05:18.738Z,13.50
2022-12-10T03:06:18.897Z,13.50
2022-12-10T03:07:19.080Z,12.90
2022-12-10T03:08:19.310Z,13.80
2022-12-10T03:09:19.416Z,14.00
2022-12-10T03:10:19.585Z,13.10
2022-12-10T03:11:19.763Z,14.70
2022-12-10T03:12:19.966Z,14.20
2022-12-10T03:13:20.146Z,12.50
2022-12-10T03:14:20.315Z,12.00
2022-12-10T03:15:20.495Z,13.30
2022-12-10T03:16:20.696Z,13.30
2022-12-10T03:17:20.849Z,12.40
2022-12-10T03:18:21.037Z,13.80
2022-12-10T03:19:21.174Z,13.40
2022-12-10T03:20:21.336Z,12.70
2022-12-10T03:21:21.525Z,12.70
2022-12-10T03:22:21.686Z,11.60
2022-12-10T03:23:21.867Z,11.90
2022-12-10T03:24:22.033Z,12.40
2022-12-10T03:25:22.205Z,14.30
2022-12-10T03:26:22.363Z,14.00
2022-12-10T03:27:22.541Z,12.00
2022-12-10T03:28:22.724Z,11.90
2022-12-10T03:29:22.897Z,13.40
2022-12-10T03:30:23.152Z,13.60
2022-12-10T03:31:23.262Z,15.20
2022-12-10T03:32:23.391Z,14.90
2022-12-10T03:33:23.589Z,13.60
2022-12-10T03:34:23.713Z,13.00
2022-12-10T03:35:23.889Z,12.20
2022-12-10T03:36:24.051Z,11.10
2022-12-10T03:37:24.219Z,12.20
2022-12-10T03:38:24.421Z,11.70
2022-12-10T03:39:24.561Z,12.90
2022-12-10T03:40:24.728Z,12.90
2022-12-10T03:41:24.911Z,11.90
2022-12-10T03:42:25.070Z,12.40
2022-12-10T03:43:25.273Z,10.60
2022-12-10T03:44:25.442Z,9.90
2022-12-10T03:45:25.599Z,13.10
2022-12-10T03:46:25.793Z,11.00
2022-12-10T03:47:25.940Z,12.80
2022-12-10T03:48:26.138Z,12.80
2022-12-10T03:49:26.299Z,11.20
2022-12-10T03:50:26.469Z,13.20
2022-12-10T03:51:26.650Z,12.40
2022-12-10T03:52:26.818Z,13.00
2022-12-10T03:53:26.989Z,11.00
2022-12-10T03:54:27.241Z,10.40
2022-12-10T03:55:27.318Z,11.80
2022-12-10T03:56:27.478Z,13.10
2022-12-10T03:57:27.659Z,11.20
2022-12-10T03:58:27.856Z,11.40
2022-12-10T03:59:28.000Z,13.90
2022-12-10T04:00:28.187Z,11.40
2022-12-10T04:01:28.397Z,13.60
2022-12-10T04:02:28.536Z,12.60
2022-12-10T04:03:28.724Z,12.50
2022-12-10T04:04:28.942Z,12.20
2022-12-10T04:05:29.084Z,13.40
2022-12-10T04:06:29.256Z,11.60
2022-12-10T04:07:29.437Z,11.50
2022-12-10T04:08:29.607Z,12.30
2022-12-10T04:09:29.786Z,13.30
2022-12-10T04:10:29.971Z,11.70
2022-12-10T04:11:30.135Z,12.20
2022-12-10T04:12:30.310Z,12.10
2022-12-10T04:13:30.485Z,12.90
2022-12-10T04:14:30.650Z,11.10
2022-12-10T04:15:30.816Z,11.60
2022-12-10T04:16:31.048Z,12.50
2022-12-10T04:17:31.165Z,11.20
2022-12-10T04:18:31.335Z,11.90
2022-12-10T04:19:31.517Z,14.30
2022-12-10T04:20:31.684Z,12.00
2022-12-10T04:21:31.845Z,11.30
2022-12-10T04:22:32.017Z,13.00
2022-12-10T04:23:32.206Z,14.30
2022-12-10T04:24:32.345Z,12.90
2022-12-10T04:25:32.526Z,12.30
2022-12-10T04:26:32.700Z,16.00
2022-12-10T04:27:32.868Z,12.10
2022-12-10T04:28:33.056Z,14.60
2022-12-10T04:29:33.214Z,12.60
2022-12-10T04:30:33.558Z,14.20
2022-12-10T04:31:33.592Z,13.20
2022-12-10T04:32:33.722Z,12.30
2022-12-10T04:33:33.921Z,12.90
2022-12-10T04:34:34.058Z,11.90
2022-12-10T04:35:34.267Z,13.40
2022-12-10T04:36:34.403Z,12.70
2022-12-10T04:37:34.582Z,13.60
2022-12-10T04:38:34.771Z,12.50
2022-12-10T04:39:34.964Z,12.50
2022-12-10T04:40:35.121Z,12.70
2022-12-10T04:41:35.293Z,12.60
2022-12-10T04:42:35.475Z,15.20
2022-12-10T04:43:35.633Z,13.00
2022-12-10T04:44:35.817Z,12.30
2022-12-10T04:45:35.971Z,12.30
2022-12-10T04:46:36.186Z,13.80
2022-12-10T04:47:36.330Z,14.40
2022-12-10T04:48:36.530Z,12.70
2022-12-10T04:49:36.674Z,13.50
2022-12-10T04:50:36.829Z,14.00
2022-12-10T04:51:37.001Z,10.90
2022-12-10T04:52:37.169Z,11.70
2022-12-10T04:53:37.380Z,14.40
2022-12-10T04:54:39.431Z,12.20
2022-12-10T04:55:37.692Z,14.50
2022-12-10T04:56:37.850Z,12.10
2022-12-10T04:57:38.019Z,12.80
2022-12-10T04:58:38.215Z,14.20
2022-12-10T04:59:38.379Z,12.00
2022-12-10T05:00:38.548Z,12.50
2022-12-10T05:01:38.819Z,14.40
2022-12-10T05:02:38.888Z,13.50
2022-12-10T05:03:39.067Z,12.20
2022-12-10T05:04:39.278Z,13.20
2022-12-10T05:05:39.408Z,11.50
2022-12-10T05:06:39.588Z,14.20
2022-12-10T05:07:39.769Z,15.30
2022-12-10T05:08:39.959Z,12.60
2022-12-10T05:09:40.136Z,14.70
2022-12-10T05:10:40.298Z,13.30
2022-12-10T05:11:40.476Z,14.60
2022-12-10T05:12:40.645Z,13.30
2022-12-10T05:13:40.837Z,15.30
2022-12-10T05:14:40.996Z,14.40
2022-12-10T05:15:41.199Z,13.90
2022-12-10T05:16:41.319Z,13.30
2022-12-10T05:17:41.490Z,14.10
2022-12-10T05:18:41.656Z,15.90
2022-12-10T05:19:41.837Z,13.30
2022-12-10T05:20:42.005Z,14.00
2022-12-10T05:21:42.184Z,13.90
2022-12-10T05:22:42.346Z,15.30
2022-12-10T05:23:42.515Z,15.00
2022-12-10T05:24:42.676Z,13.70
2022-12-10T05:25:42.835Z,14.80
2022-12-10T05:26:43.025Z,14.50
2022-12-10T05:27:43.197Z,15.70
2022-12-10T05:28:43.393Z,13.10
2022-12-10T05:29:43.525Z,14.80
2022-12-10T05:30:43.738Z,12.80
2022-12-10T05:31:43.875Z,15.10
2022-12-10T05:32:44.043Z,13.70
2022-12-10T05:33:44.241Z,12.90
2022-12-10T05:34:44.363Z,13.90
2022-12-10T05:35:44.536Z,16.30
2022-12-10T05:36:44.706Z,15.70
2022-12-10T05:37:44.879Z,14.40
2022-12-10T05:38:45.047Z,15.10
2022-12-10T05:39:45.212Z,13.60
2022-12-10T05:40:45.374Z,14.80
2022-12-10T05:41:45.542Z,15.00
2022-12-10T05:42:45.713Z,14.40
2022-12-10T05:43:45.891Z,14.70
2022-12-10T05:44:46.071Z,15.40
2022-12-10T05:45:46.254Z,14.50
2022-12-10T05:46:46.475Z,14.40
2022-12-10T05:47:46.601Z,14.90
2022-12-10T05:48:46.799Z,14.20
2022-12-10T05:49:52.143Z,14.40
2022-12-10T05:50:48.122Z,15.40
2022-12-10T05:51:47.279Z,14.70
2022-12-10T05:52:47.452Z,15.00
2022-12-10T05:53:47.631Z,14.20
2022-12-10T05:54:47.799Z,14.20
2022-12-10T05:55:47.961Z,15.20
2022-12-10T05:56:48.168Z,15.20
2022-12-10T05:57:48.311Z,15.50
2022-12-10T05:58:48.479Z,13.40
2022-12-10T05:59:48.650Z,14.90
2022-12-10T06:00:48.822Z,14.90
2022-12-10T06:01:48.991Z,13.70
2022-12-10T06:02:49.209Z,12.80
2022-12-10T06:03:49.310Z,14.40
2022-12-10T06:04:49.536Z,14.00
2022-12-10T06:05:49.688Z,14.10
2022-12-10T06:06:49.849Z,13.40
2022-12-10T06:07:50.065Z,15.90
2022-12-10T06:08:50.218Z,16.50
2022-12-10T06:09:50.386Z,14.00
2022-12-10T06:10:50.548Z,15.60
2022-12-10T06:11:50.717Z,16.50
2022-12-10T06:12:50.876Z,14.10
2022-12-10T06:13:55.991Z,14.00
2022-12-10T06:14:52.206Z,15.10
2022-12-10T06:15:51.416Z,13.90
2022-12-10T06:16:51.577Z,15.40
2022-12-10T06:17:51.743Z,18.00
2022-12-10T06:18:51.936Z,17.20
2022-12-10T06:19:52.107Z,15.50
2022-12-10T06:20:52.268Z,14.40
2022-12-10T06:21:52.435Z,13.60
2022-12-10T06:22:52.586Z,15.20
2022-12-10T06:23:52.757Z,14.10
2022-12-10T06:24:52.925Z,14.20
2022-12-10T06:25:53.095Z,15.60
2022-12-10T06:26:55.713Z,17.60
2022-12-10T06:27:53.426Z,14.50
2022-12-10T06:28:53.610Z,14.70
2022-12-10T06:29:53.785Z,16.50
2022-12-10T06:30:54.002Z,16.50
2022-12-10T06:31:54.145Z,14.60
2022-12-10T06:32:54.305Z,16.20
2022-12-10T06:33:54.487Z,15.50
2022-12-10T06:34:54.647Z,14.10
2022-12-10T06:35:54.814Z,13.90
2022-12-10T06:36:54.984Z,14.40
2022-12-10T06:37:55.156Z,13.10
2022-12-10T06:38:55.337Z,16.10
2022-12-10T06:39:55.493Z,16.20
2022-12-10T06:40:55.670Z,14.60
2022-12-10T06:41:58.971Z,15.80
2022-12-10T06:42:55.995Z,15.70
2022-12-10T06:43:56.193Z,13.90
2022-12-10T06:44:56.343Z,16.20
2022-12-10T06:45:56.535Z,16.90
2022-12-10T06:46:56.839Z,14.00
2022-12-10T06:47:56.902Z,16.40
2022-12-10T06:48:57.074Z,13.20
2022-12-10T06:49:57.235Z,16.20
2022-12-10T06:50:57.381Z,13.80
2022-12-10T06:51:57.596Z,16.90
2022-12-10T06:52:57.742Z,15.20
2022-12-10T06:53:57.973Z,15.70
2022-12-10T06:54:58.091Z,15.30
2022-12-10T06:55:58.288Z,13.20
2022-12-10T06:56:58.433Z,14.90
2022-12-10T06:57:58.621Z,14.50
2022-12-10T06:58:58.813Z,15.40
2022-12-10T06:59:59.010Z,13.60
2022-12-10T07:00:59.181Z,13.50
2022-12-10T07:01:59.442Z,17.40
2022-12-10T07:02:59.543Z,15.30
2022-12-10T07:03:59.708Z,15.60
2022-12-10T07:04:59.862Z,13.00
2022-12-10T07:06:00.038Z,13.80
2022-12-10T07:07:01.586Z,16.30
2022-12-10T07:08:00.467Z,14.20
2022-12-10T07:09:00.580Z,14.60
2022-12-10T07:10:00.721Z,14.70
2022-12-10T07:11:00.923Z,13.10
2022-12-10T07:12:01.098Z,12.10
2022-12-10T07:13:01.259Z,14.80
2022-12-10T07:14:01.459Z,14.00
2022-12-10T07:15:01.622Z,13.80
2022-12-10T07:16:01.836Z,15.30
2022-12-10T07:17:02.000Z,15.50
2022-12-10T07:18:02.192Z,15.50
2022-12-10T07:19:02.389Z,12.60
2022-12-10T07:20:02.557Z,13.30
2022-12-10T07:21:02.741Z,16.10
2022-12-10T07:22:02.899Z,12.20
2022-12-10T07:23:03.088Z,12.80
2022-12-10T07:24:03.298Z,13.10
2022-12-10T07:25:03.446Z,13.70
2022-12-10T07:26:03.637Z,13.50
2022-12-10T07:27:03.807Z,12.40
2022-12-10T07:28:03.988Z,12.90
2022-12-10T07:29:04.176Z,13.80
2022-12-10T07:30:04.338Z,16.60
2022-12-10T07:31:04.550Z,12.80
2022-12-10T07:32:04.693Z,13.40
2022-12-10T07:33:04.875Z,13.30
2022-12-10T07:34:05.075Z,13.20
2022-12-10T07:35:05.236Z,12.50
2022-12-10T07:36:05.425Z,13.20
2022-12-10T07:37:05.615Z,12.80
2022-12-10T07:38:05.808Z,15.10
2022-12-10T07:39:06.002Z,14.10
2022-12-10T07:40:06.243Z,14.50
2022-12-10T07:41:06.361Z,11.80
2022-12-10T07:42:06.528Z,13.50
2022-12-10T07:43:06.714Z,14.60
2022-12-10T07:44:06.894Z,12.00
2022-12-10T07:45:07.074Z,12.80
2022-12-10T07:46:07.236Z,13.00
2022-12-10T07:47:07.421Z,13.70
2022-12-10T07:48:07.563Z,14.20
2022-12-10T07:49:07.786Z,13.40
2022-12-10T07:50:08.167Z,12.00
2022-12-10T07:51:08.111Z,13.60
2022-12-10T07:52:08.275Z,12.60
2022-12-10T07:53:08.496Z,13.50
2022-12-10T07:54:08.666Z,12.40
2022-12-10T07:55:08.830Z,14.10
2022-12-10T07:56:09.026Z,14.10
2022-12-10T07:57:09.184Z,13.20
2022-12-10T07:58:09.389Z,12.70
2022-12-10T07:59:09.607Z,14.00
2022-12-10T08:00:10.101Z,12.90
2022-12-10T08:01:09.918Z,18.30
2022-12-10T08:02:10.083Z,10.90
2022-12-10T08:03:10.320Z,13.30
2022-12-10T08:04:10.471Z,13.60
2022-12-10T08:05:10.621Z,13.00
2022-12-10T08:06:10.800Z,11.70
2022-12-10T08:07:10.992Z,11.90
2022-12-10T08:08:11.187Z,11.60
2022-12-10T08:09:11.360Z,13.20
2022-12-10T08:10:11.703Z,13.00
2022-12-10T08:11:11.690Z,13.30
2022-12-10T08:12:11.872Z,11.50
2022-12-10T08:13:12.068Z,13.00
2022-12-10T08:14:12.260Z,15.90
2022-12-10T08:15:12.420Z,12.80
2022-12-10T08:16:12.665Z,10.80
2022-12-10T08:17:12.798Z,14.40
2022-12-10T08:18:12.979Z,12.90
2022-12-10T08:19:17.857Z,13.10
2022-12-10T08:20:14.350Z,11.60
2022-12-10T08:21:13.519Z,11.10
2022-12-10T08:22:13.706Z,11.00
2022-12-10T08:23:13.888Z,11.60
2022-12-10T08:24:14.077Z,11.80
2022-12-10T08:25:14.217Z,10.90
2022-12-10T08:26:14.416Z,11.60
2022-12-10T08:27:15.537Z,11.10
2022-12-10T08:28:14.769Z,12.60
2022-12-10T08:29:14.957Z,11.10
2022-12-10T08:30:15.100Z,11.60
2022-12-10T08:31:15.320Z,8.40
2022-12-10T08:32:15.436Z,10.70
2022-12-10T08:33:15.606Z,10.00
2022-12-10T08:34:15.804Z,12.00
2022-12-10T08:35:15.967Z,10.60
2022-12-10T08:36:16.170Z,11.20
2022-12-10T08:37:16.334Z,12.10
2022-12-10T08:38:16.526Z,11.10
2022-12-10T08:39:16.755Z,9.50
2022-12-10T08:40:16.870Z,12.00
2022-12-10T08:41:17.038Z,10.40
2022-12-10T08:42:17.216Z,9.00
2022-12-10T08:43:17.386Z,9.70
2022-12-10T08:44:17.577Z,10.60
2022-12-10T08:45:17.734Z,9.90
2022-12-10T08:46:17.885Z,9.60
2022-12-10T08:47:18.093Z,11.00
2022-12-10T08:48:18.256Z,13.70
2022-12-10T08:49:18.488Z,9.60
2022-12-10T08:50:18.600Z,11.80
2022-12-10T08:51:18.775Z,10.70
2022-12-10T08:52:18.944Z,10.30
2022-12-10T08:53:19.124Z,10.00
2022-12-10T08:54:19.307Z,8.80
2022-12-10T08:55:19.464Z,9.40
2022-12-10T08:56:19.622Z,9.00
2022-12-10T08:57:19.813Z,10.50
2022-12-10T08:58:19.994Z,10.50
2022-12-10T08:59:20.195Z,10.40
2022-12-10T09:00:20.332Z,11.50
2022-12-10T09:01:20.653Z,8.70
2022-12-10T09:02:20.720Z,10.80
2022-12-10T09:03:20.893Z,11.00
2022-12-10T09:04:21.049Z,9.00
2022-12-10T09:05:21.230Z,9.60
2022-12-10T09:06:21.424Z,11.40
2022-12-10T09:07:21.570Z,10.60
2022-12-10T09:08:21.754Z,10.00
2022-12-10T09:09:21.922Z,9.10
2022-12-10T09:10:22.053Z,10.10
2022-12-10T09:11:22.247Z,12.40
2022-12-10T09:12:22.432Z,9.70
2022-12-10T09:13:22.611Z,11.40
2022-12-10T09:14:22.770Z,11.40
2022-12-10T09:15:22.962Z,12.20
2022-12-10T09:16:23.151Z,12.80
2022-12-10T09:17:23.299Z,11.70
2022-12-10T09:18:23.469Z,9.80
2022-12-10T09:19:23.664Z,11.80
2022-12-10T09:20:23.812Z,10.60
2022-12-10T09:21:23.971Z,10.20
2022-12-10T09:22:24.137Z,11.40
2022-12-10T09:23:24.319Z,10.70
2022-12-10T09:24:24.520Z,11.10
2022-12-10T09:25:24.672Z,8.70
2022-12-10T09:26:24.840Z,8.60
2022-12-10T09:27:25.036Z,8.00
2022-12-10T09:28:25.198Z,9.80
2022-12-10T09:29:25.390Z,8.70
2022-12-10T09:30:25.530Z,11.30
2022-12-10T09:31:25.772Z,10.00
2022-12-10T09:32:25.930Z,10.00
2022-12-10T09:33:26.048Z,8.40
2022-12-10T09:34:26.238Z,8.90
2022-12-10T09:35:26.426Z,11.10
2022-12-10T09:36:33.131Z,9.40
2022-12-10T09:37:27.765Z,9.60
2022-12-10T09:38:26.945Z,8.20
2022-12-10T09:39:27.144Z,9.00
2022-12-10T09:40:27.322Z,9.50
2022-12-10T09:41:27.478Z,9.90
2022-12-10T09:42:27.646Z,8.20
2022-12-10T09:43:27.897Z,7.70
2022-12-10T09:44:28.016Z,9.10
2022-12-10T09:45:28.176Z,8.80
2022-12-10T09:46:28.337Z,8.90
2022-12-10T09:47:28.526Z,7.70
2022-12-10T09:48:28.706Z,8.90
2022-12-10T09:49:28.904Z,8.20
2022-12-10T09:50:29.068Z,9.20
2022-12-10T09:51:29.225Z,10.00
2022-12-10T09:52:29.405Z,8.50
2022-12-10T09:53:29.584Z,7.70
2022-12-10T09:54:29.768Z,7.50
2022-12-10T09:55:30.038Z,9.50
2022-12-10T09:56:30.094Z,9.30
2022-12-10T09:57:30.295Z,7.50
2022-12-10T09:58:30.588Z,8.30
2022-12-10T09:59:30.654Z,7.90
2022-12-10T10:00:30.785Z,8.90
2022-12-10T10:01:31.009Z,7.40
2022-12-10T10:02:31.175Z,8.70
2022-12-10T10:03:31.305Z,7.90
2022-12-10T10:04:32.465Z,9.30
2022-12-10T10:05:31.653Z,8.30
2022-12-10T10:06:31.832Z,9.10
2022-12-10T10:07:32.022Z,8.60
2022-12-10T10:08:32.183Z,9.50
2022-12-10T10:09:32.380Z,7.90
2022-12-10T10:10:32.523Z,10.40
2022-12-10T10:11:32.748Z,13.80
2022-12-10T10:12:32.884Z,8.50
2022-12-10T10:13:33.034Z,8.30
2022-12-10T10:14:33.234Z,9.40
2022-12-10T10:15:33.404Z,8.80
2022-12-10T10:16:33.634Z,9.50
2022-12-10T10:17:33.772Z,11.70
2022-12-10T10:18:33.922Z,8.70
2022-12-10T10:19:34.112Z,9.30
2022-12-10T10:20:34.293Z,9.70
2022-12-10T10:21:34.471Z,7.50
2022-12-10T10:22:34.659Z,7.60
2022-12-10T10:23:34.837Z,6.30
2022-12-10T10:24:35.024Z,8.70
2022-12-10T10:25:35.200Z,11.70
2022-12-10T10:26:35.358Z,9.10
2022-12-10T10:27:35.551Z,7.80
2022-12-10T10:28:35.721Z,7.30
2022-12-10T10:29:35.911Z,10.60
2022-12-10T10:30:36.096Z,8.80
2022-12-10T10:31:36.240Z,8.80
2022-12-10T10:32:36.412Z,7.80
2022-12-10T10:33:36.593Z,9.20
2022-12-10T10:34:36.840Z,8.80
2022-12-10T10:35:36.940Z,8.80
2022-12-10T10:36:37.109Z,9.80
2022-12-10T10:37:37.302Z,6.60
2022-12-10T10:38:37.476Z,11.50
2022-12-10T10:39:37.689Z,7.90
2022-12-10T10:40:37.836Z,8.10
2022-12-10T10:41:37.995Z,6.00
2022-12-10T10:42:38.149Z,7.70
2022-12-10T10:43:38.318Z,8.30
2022-12-10T10:44:38.519Z,9.30
2022-12-10T10:45:38.795Z,7.80
2022-12-10T10:46:38.845Z,10.70
2022-12-10T10:47:39.048Z,10.70
2022-12-10T10:48:39.198Z,13.90
2022-12-10T10:49:39.418Z,10.80
2022-12-10T10:50:39.557Z,6.60
2022-12-10T10:51:39.810Z,7.60
2022-12-10T10:52:39.909Z,6.90
2022-12-10T10:53:40.104Z,7.00
2022-12-10T10:54:40.267Z,7.30
2022-12-10T10:55:40.447Z,7.40
2022-12-10T10:56:40.625Z,7.10
2022-12-10T10:57:40.808Z,7.40
2022-12-10T10:58:40.978Z,8.60
2022-12-10T10:59:41.178Z,8.30
2022-12-10T11:00:41.337Z,7.50
2022-12-10T11:01:41.539Z,9.00
2022-12-10T11:02:41.729Z,6.90
2022-12-10T11:03:41.872Z,6.10
2022-12-10T11:04:42.064Z,6.70
2022-12-10T11:05:42.233Z,8.50
2022-12-10T11:06:42.405Z,8.20
2022-12-10T11:07:42.671Z,6.90
2022-12-10T11:08:42.745Z,8.50
2022-12-10T11:09:42.938Z,8.90
2022-12-10T11:10:43.075Z,7.80
2022-12-10T11:11:43.267Z,6.90
2022-12-10T11:12:43.437Z,7.90
2022-12-10T11:13:43.629Z,7.70
2022-12-10T11:14:43.804Z,7.10
2022-12-10T11:15:43.993Z,6.70
2022-12-10T11:16:44.196Z,7.10
2022-12-10T11:17:44.345Z,9.20
2022-12-10T11:18:44.526Z,6.50
2022-12-10T11:19:44.704Z,7.60
2022-12-10T11:20:44.905Z,8.50
2022-12-10T11:21:45.059Z,7.20
2022-12-10T11:22:45.222Z,7.70
2022-12-10T11:23:45.405Z,7.40
2022-12-10T11:24:45.629Z,9.50
2022-12-10T11:25:45.773Z,6.90
2022-12-10T11:26:46.013Z,7.40
2022-12-10T11:27:46.132Z,7.10
2022-12-10T11:28:46.314Z,7.50
2022-12-10T11:29:46.513Z,6.60
2022-12-10T11:30:46.704Z,10.10
2022-12-10T11:31:46.832Z,8.40
2022-12-10T11:32:47.030Z,7.00
2022-12-10T11:33:47.218Z,7.60
2022-12-10T11:34:47.403Z,8.80
2022-12-10T11:35:47.534Z,8.80
2022-12-10T11:36:47.711Z,8.80
2022-12-10T11:37:47.902Z,9.30
2022-12-10T11:38:48.099Z,7.40
2022-12-10T11:39:48.240Z,8.00
2022-12-10T11:40:48.429Z,8.00
2022-12-10T11:41:48.601Z,8.20
2022-12-10T11:42:48.792Z,7.10
2022-12-10T11:43:48.975Z,7.30
2022-12-10T11:44:49.152Z,10.90
2022-12-10T11:45:49.334Z,8.70
2022-12-10T11:46:49.468Z,7.40
2022-12-10T11:47:49.637Z,8.40
2022-12-10T11:48:49.797Z,9.80
2022-12-10T11:49:49.972Z,11.00
2022-12-10T11:50:50.170Z,8.40
2022-12-10T11:51:50.347Z,9.20
2022-12-10T11:52:50.519Z,10.80
2022-12-10T11:53:50.720Z,8.90
2022-12-10T11:54:50.908Z,8.00
2022-12-10T11:55:51.110Z,8.10
2022-12-10T11:56:51.258Z,8.20
2022-12-10T11:57:51.437Z,10.10
2022-12-10T11:58:51.639Z,8.80
2022-12-10T12:00:06.914Z,10.30
2022-12-10T12:01:00.206Z,8.60
2022-12-10T12:01:53.117Z,8.90
2022-12-10T12:02:52.352Z,12.20
2022-12-10T12:03:52.484Z,7.30
2022-12-10T12:04:52.657Z,9.10
2022-12-10T12:05:52.800Z,8.40
2022-12-10T12:06:53.037Z,9.30
2022-12-10T12:07:53.225Z,8.70
2022-12-10T12:08:53.347Z,9.60
2022-12-10T12:09:53.553Z,9.50
2022-12-10T12:10:54.861Z,9.90
2022-12-10T12:11:53.846Z,11.60
2022-12-10T12:12:56.022Z,11.00
2022-12-10T12:13:54.217Z,11.40
2022-12-10T12:14:54.436Z,8.40
2022-12-10T12:15:54.620Z,10.00
2022-12-10T12:16:54.736Z,8.80
2022-12-10T12:17:54.914Z,8.80
2022-12-10T12:18:55.088Z,9.90
2022-12-10T12:19:55.272Z,12.60
2022-12-10T12:20:55.456Z,8.30
2022-12-10T12:21:55.635Z,9.00
2022-12-10T12:22:55.807Z,9.40
2022-12-10T12:24:02.038Z,9.80
2022-12-10T12:24:57.194Z,7.70
2022-12-10T12:25:56.335Z,8.30
2022-12-10T12:26:56.518Z,8.50
2022-12-10T12:27:56.698Z,10.20
2022-12-10T12:28:56.904Z,10.20
2022-12-10T12:29:57.054Z,9.90
2022-12-10T12:30:57.319Z,7.40
2022-12-10T12:31:57.424Z,8.90
2022-12-10T12:32:57.604Z,7.90
2022-12-10T12:33:57.784Z,13.20
2022-12-10T12:35:00.967Z,8.90
2022-12-10T12:35:58.160Z,8.30
2022-12-10T12:36:58.332Z,9.60
2022-12-10T12:37:58.531Z,10.10
2022-12-10T12:38:58.703Z,9.70
2022-12-10T12:39:58.892Z,10.20
2022-12-10T12:40:59.053Z,10.80
2022-12-10T12:42:03.175Z,12.30
2022-12-10T12:42:59.395Z,10.20
2022-12-10T12:43:59.577Z,10.20
2022-12-10T12:44:59.774Z,10.90
2022-12-10T12:46:00.008Z,9.60
2022-12-10T12:47:00.131Z,8.80
2022-12-10T12:48:01.490Z,9.10
2022-12-10T12:49:00.492Z,11.00
2022-12-10T12:50:00.653Z,9.50
2022-12-10T12:51:00.845Z,10.40
2022-12-10T12:52:00.995Z,10.80
2022-12-10T12:53:01.256Z,11.10
2022-12-10T12:54:01.355Z,10.60
2022-12-10T12:55:01.542Z,10.00
2022-12-10T12:56:01.740Z,10.30
2022-12-10T12:57:01.890Z,10.10
2022-12-10T12:58:02.042Z,11.60
2022-12-10T12:59:02.230Z,10.40
2022-12-10T13:00:02.417Z,10.00
2022-12-10T13:01:02.639Z,9.00